createdAt,value
2019-01-19T00:01:23.398Z,95495.13
2019-01-19T00:04:22.161Z,95491.48
2019-01-19T00:07:29.284Z,95483.10
2019-01-19T00:10:36.279Z,95483.11
2019-01-19T00:13:49.703Z,95484.83
2019-01-19T00:17:03.935Z,95487.12
2019-01-19T00:19:56.399Z,95478.95
2019-01-19T00:22:56.360Z,95476.70
2019-01-19T00:25:49.735Z,95477.63
2019-01-19T00:28:31.484Z,95475.47
2019-01-19T00:31:23.615Z,95470.27
2019-01-19T00:34:40.291Z,95477.98
2019-01-19T00:37:56.745Z,95474.37
2019-01-19T00:40:57.373Z,95474.01
2019-01-19T00:44:09.226Z,95470.08
2019-01-19T00:47:28.979Z,95473.73
2019-01-19T00:50:32.461Z,95465.90
2019-01-19T00:53:40.482Z,95460.03
2019-01-19T00:56:42.636Z,95460.78
2019-01-19T00:59:17.463Z,95457.42
2019-01-19T01:02:36.439Z,95459.10
2019-01-19T01:05:11.714Z,95461.39
2019-01-19T01:08:08.884Z,95452.18
2019-01-19T01:11:16.049Z,95456.06
2019-01-19T01:14:20.058Z,95449.93
2019-01-19T01:17:21.036Z,95446.44
2019-01-19T01:20:22.251Z,95443.22
2019-01-19T01:23:26.324Z,95441.33
2019-01-19T01:26:34.006Z,95446.44
2019-01-19T01:29:48.020Z,95445.47
2019-01-19T01:32:24.659Z,95440.88
2019-01-19T01:35:42.122Z,95442.55
2019-01-19T01:38:52.200Z,95444.33
2019-01-19T01:42:13.676Z,95442.59
2019-01-19T01:45:24.904Z,95439.91
2019-01-19T01:48:26.329Z,95432.67
2019-01-19T01:51:21.816Z,95447.09
2019-01-19T01:54:33.210Z,95431.75
2019-01-19T01:57:09.911Z,95441.53
2019-01-19T02:00:26.231Z,95434.21
2019-01-19T02:03:38.950Z,95432.59
2019-01-19T02:06:27.367Z,95428.80
2019-01-19T02:09:52.428Z,95436.33
2019-01-19T02:12:53.262Z,95439.03
2019-01-19T02:16:01.100Z,95427.21
2019-01-19T02:18:56.105Z,95419.54
2019-01-19T02:21:49.155Z,95426.38
2019-01-19T02:24:50.234Z,95424.30
2019-01-19T02:27:55.366Z,95425.53
2019-01-19T02:30:49.142Z,95424.34
2019-01-19T02:34:12.397Z,95419.19
2019-01-19T02:37:23.691Z,95420.86
2019-01-19T02:40:10.649Z,95415.58
2019-01-19T02:43:23.905Z,95408.55
2019-01-19T02:46:37.428Z,95408.55
2019-01-19T02:49:41.625Z,95411.78
2019-01-19T02:52:33.084Z,95408.34
2019-01-19T02:55:39.299Z,95402.20
2019-01-19T02:58:48.185Z,95408.73
2019-01-19T03:01:55.460Z,95403.09
2019-01-19T03:04:50.777Z,95397.84
2019-01-19T03:07:45.571Z,95397.84
2019-01-19T03:11:09.308Z,95404.86
2019-01-19T03:14:08.258Z,95404.86
2019-01-19T03:17:04.931Z,95403.58
2019-01-19T03:20:37.913Z,95398.95
2019-01-19T03:23:46.599Z,95402.78
2019-01-19T03:27:00.254Z,95394.75
2019-01-19T03:30:20.453Z,95400.14
2019-01-19T03:33:28.133Z,95402.34
2019-01-19T03:36:40.629Z,95413.37
2019-01-19T03:39:50.228Z,95403.04
2019-01-19T03:42:56.115Z,95407.66
2019-01-19T03:46:09.507Z,95403.88
2019-01-19T03:49:08.966Z,95405.11
2019-01-19T03:51:49.916Z,95406.34
2019-01-19T03:54:35.418Z,95398.27
2019-01-19T03:57:32.149Z,95389.69
2019-01-19T04:00:40.175Z,95399.46
2019-01-19T04:03:45.938Z,95401.83
2019-01-19T04:06:49.407Z,95402.23
2019-01-19T04:10:17.301Z,95394.50
2019-01-19T04:13:46.759Z,95390.52
2019-01-19T04:16:47.357Z,95390.52
2019-01-19T04:19:52.984Z,95388.91
2019-01-19T04:22:48.248Z,95387.63
2019-01-19T04:25:28.638Z,95388.27
2019-01-19T04:28:00.565Z,95388.27
2019-01-19T04:30:30.842Z,95387.77
2019-01-19T04:33:01.101Z,95377.06
2019-01-19T04:35:31.364Z,95377.06
2019-01-19T04:38:01.630Z,95390.72
2019-01-19T04:40:31.878Z,95388.51
2019-01-19T04:43:02.145Z,95393.27
2019-01-19T04:45:32.415Z,95387.17
2019-01-19T04:48:02.651Z,95391.73
2019-01-19T04:50:32.873Z,95388.84
2019-01-19T04:53:03.142Z,95390.51
2019-01-19T04:55:33.435Z,95389.19
2019-01-19T04:58:03.683Z,95382.30
2019-01-19T05:00:33.925Z,95388.39
2019-01-19T05:03:04.269Z,95390.46
2019-01-19T05:05:34.529Z,95387.45
2019-01-19T05:08:04.767Z,95391.53
2019-01-19T05:10:35.027Z,95391.98
2019-01-19T05:13:05.271Z,95390.36
2019-01-19T05:15:35.545Z,95385.59
2019-01-19T05:18:06.395Z,95388.04
2019-01-19T05:20:39.546Z,95388.59
2019-01-19T05:23:10.804Z,95383.43
2019-01-19T05:25:41.171Z,95375.70
2019-01-19T05:28:11.505Z,95371.89
2019-01-19T05:30:41.710Z,95385.20
2019-01-19T05:33:11.976Z,95388.81
2019-01-19T05:35:42.212Z,95390.47
2019-01-19T05:38:12.477Z,95388.77
2019-01-19T05:40:42.841Z,95387.87
2019-01-19T05:43:13.328Z,95385.55
2019-01-19T05:45:43.589Z,95386.53
2019-01-19T05:48:13.859Z,95384.03
2019-01-19T05:50:44.191Z,95384.92
2019-01-19T05:53:14.931Z,95380.61
2019-01-19T05:55:45.184Z,95380.61
2019-01-19T05:58:15.459Z,95382.83
2019-01-19T06:00:45.744Z,95387.93
2019-01-19T06:03:16.005Z,95383.21
2019-01-19T06:05:46.571Z,95383.21
2019-01-19T06:08:19.864Z,95382.70
2019-01-19T06:10:51.172Z,95382.70
2019-01-19T06:13:21.452Z,95385.37
2019-01-19T06:15:51.723Z,95378.88
2019-01-19T06:18:21.982Z,95378.88
2019-01-19T06:20:52.883Z,95380.66
2019-01-19T06:23:23.155Z,95381.76
2019-01-19T06:25:53.450Z,95369.99
2019-01-19T06:28:23.678Z,95378.55
2019-01-19T06:30:53.970Z,95383.70
2019-01-19T06:33:24.285Z,95385.98
2019-01-19T06:35:54.545Z,95386.87
2019-01-19T06:38:24.814Z,95391.58
2019-01-19T06:40:55.094Z,95392.20
2019-01-19T06:43:25.373Z,95379.88
2019-01-19T06:45:55.706Z,95379.88
2019-01-19T06:48:25.988Z,95392.30
2019-01-19T06:50:56.254Z,95386.09
2019-01-19T06:53:26.572Z,95386.52
2019-01-19T06:55:56.871Z,95394.62
2019-01-19T06:58:27.124Z,95389.68
2019-01-19T07:00:57.457Z,95395.09
2019-01-19T07:03:27.708Z,95391.45
2019-01-19T07:05:57.984Z,95394.45
2019-01-19T07:08:28.245Z,95387.66
2019-01-19T07:10:58.583Z,95387.66
2019-01-19T07:13:28.867Z,95397.98
2019-01-19T07:15:58.132Z,95399.83
2019-01-19T07:18:27.252Z,95396.17
2019-01-19T07:20:56.380Z,95398.79
2019-01-19T07:23:25.524Z,95400.13
2019-01-19T07:25:55.665Z,95398.94
2019-01-19T07:28:25.963Z,95400.15
2019-01-19T07:30:56.290Z,95401.72
2019-01-19T07:33:26.605Z,95404.45
2019-01-19T07:35:56.886Z,95406.83
2019-01-19T07:38:27.167Z,95402.29
2019-01-19T07:40:57.513Z,95404.23
2019-01-19T07:43:28.237Z,95410.45
2019-01-19T07:45:58.567Z,95405.89
2019-01-19T07:48:28.846Z,95405.89
2019-01-19T07:50:59.118Z,95417.18
2019-01-19T07:53:29.442Z,95416.46
2019-01-19T07:55:59.710Z,95419.56
2019-01-19T07:58:29.955Z,95422.06
2019-01-19T08:01:00.258Z,95422.13
2019-01-19T08:03:30.574Z,95425.94
2019-01-19T08:06:00.944Z,95423.39
2019-01-19T08:08:31.254Z,95423.29
2019-01-19T08:11:01.596Z,95417.46
2019-01-19T08:13:31.903Z,95424.55
2019-01-19T08:16:02.280Z,95424.55
2019-01-19T08:18:33.550Z,95424.59
2019-01-19T08:21:03.863Z,95428.55
2019-01-19T08:23:34.197Z,95419.09
2019-01-19T08:26:04.564Z,95423.21
2019-01-19T08:28:34.855Z,95421.55
2019-01-19T08:31:05.279Z,95418.66
2019-01-19T08:33:35.594Z,95419.98
2019-01-19T08:36:06.420Z,95417.64
2019-01-19T08:38:36.761Z,95409.34
2019-01-19T08:41:07.074Z,95409.34
2019-01-19T08:43:43.459Z,95416.78
2019-01-19T08:46:13.751Z,95416.78
2019-01-19T08:48:44.095Z,95418.09
2019-01-19T08:51:14.470Z,95419.02
2019-01-19T08:53:44.999Z,95414.95
2019-01-19T08:56:15.302Z,95417.56
2019-01-19T08:58:45.598Z,95423.84
2019-01-19T09:01:15.884Z,95417.55
2019-01-19T09:03:46.390Z,95415.13
2019-01-19T09:06:16.669Z,95413.45
2019-01-19T09:08:47.106Z,95426.05
2019-01-19T09:11:17.399Z,95426.05
2019-01-19T09:13:47.650Z,95423.10
2019-01-19T09:16:20.599Z,95422.52
2019-01-19T09:18:51.010Z,95417.75
2019-01-19T09:21:22.471Z,95417.75
2019-01-19T09:24:04.807Z,95422.42
2019-01-19T09:26:35.126Z,95417.75
2019-01-19T09:29:05.423Z,95422.61
2019-01-19T09:31:35.705Z,95420.98
2019-01-19T09:34:05.999Z,95416.22
2019-01-19T09:36:36.395Z,95417.99
2019-01-19T09:39:10.773Z,95413.92
2019-01-19T09:41:42.472Z,95411.59
2019-01-19T09:44:12.879Z,95407.46
2019-01-19T09:46:43.365Z,95406.39
2019-01-19T09:49:13.686Z,95406.39
2019-01-19T09:51:44.021Z,95408.52
2019-01-19T09:54:14.335Z,95419.36
2019-01-19T09:56:44.675Z,95410.49
2019-01-19T09:59:14.936Z,95412.80
2019-01-19T10:01:46.591Z,95407.80
2019-01-19T10:04:16.883Z,95403.00
2019-01-19T10:06:48.237Z,95402.55
2019-01-19T10:09:18.624Z,95408.38
2019-01-19T10:11:48.881Z,95399.50
2019-01-19T10:14:19.216Z,95401.22
2019-01-19T10:16:49.746Z,95406.41
2019-01-19T10:19:20.065Z,95400.25
2019-01-19T10:21:50.445Z,95396.12
2019-01-19T10:24:20.765Z,95394.47
2019-01-19T10:26:51.139Z,95393.66
2019-01-19T10:29:21.562Z,95386.08
2019-01-19T10:31:51.817Z,95381.53
2019-01-19T10:34:22.096Z,95375.19
2019-01-19T10:36:52.391Z,95377.41
2019-01-19T10:39:22.675Z,95369.03
2019-01-19T10:41:52.957Z,95369.58
2019-01-19T10:44:23.265Z,95371.67
2019-01-19T10:46:53.584Z,95371.34
2019-01-19T10:49:23.928Z,95365.83
2019-01-19T10:51:59.364Z,95370.91
2019-01-19T10:54:26.201Z,95365.05
2019-01-19T10:56:56.551Z,95360.36
2019-01-19T10:59:26.821Z,95355.65
2019-01-19T11:01:57.094Z,95354.48
2019-01-19T11:04:27.396Z,95351.65
2019-01-19T11:06:57.802Z,95346.70
2019-01-19T11:09:28.118Z,95344.30
2019-01-19T11:11:58.413Z,95342.27
2019-01-19T11:14:28.775Z,95335.05
2019-01-19T11:17:17.980Z,95338.09
2019-01-19T11:19:49.051Z,95337.23
2019-01-19T11:22:19.309Z,95325.16
2019-01-19T11:24:49.814Z,95322.95
2019-01-19T11:27:20.067Z,95312.97
2019-01-19T11:29:50.656Z,95308.09
2019-01-19T11:32:20.930Z,95305.75
2019-01-19T11:34:51.288Z,95302.42
2019-01-19T11:37:21.551Z,95298.52
2019-01-19T11:39:51.954Z,95298.98
2019-01-19T11:42:22.215Z,95296.09
2019-01-19T11:44:52.487Z,95301.34
2019-01-19T11:47:22.809Z,95299.84
2019-01-19T11:49:53.162Z,95285.50
2019-01-19T11:52:24.998Z,95280.78
2019-01-19T11:54:55.268Z,95276.91
2019-01-19T11:57:26.519Z,95274.59
2019-01-19T11:59:56.825Z,95273.54
2019-01-19T12:02:27.126Z,95273.34
2019-01-19T12:04:57.437Z,95272.19
2019-01-19T12:07:27.770Z,95271.56
2019-01-19T12:09:58.046Z,95269.72
2019-01-19T12:12:28.475Z,95265.74
2019-01-19T12:14:58.827Z,95256.66
2019-01-19T12:17:29.161Z,95259.50
2019-01-19T12:19:59.443Z,95257.12
2019-01-19T12:22:29.702Z,95257.09
2019-01-19T12:25:00.034Z,95254.06
2019-01-19T12:27:30.302Z,95251.72
2019-01-19T12:30:00.597Z,95253.02
2019-01-19T12:32:31.100Z,95247.11
2019-01-19T12:35:01.524Z,95245.94
2019-01-19T12:37:31.943Z,95245.23
2019-01-19T12:40:02.246Z,95237.39
2019-01-19T12:42:32.565Z,95238.84
2019-01-19T12:45:02.859Z,95239.56
2019-01-19T12:47:33.242Z,95234.13
2019-01-19T12:50:04.437Z,95237.34
2019-01-19T12:52:34.723Z,95233.84
2019-01-19T12:55:05.380Z,95238.66
2019-01-19T12:57:35.653Z,95234.31
2019-01-19T13:00:06.852Z,95239.14
2019-01-19T13:02:37.143Z,95232.27
2019-01-19T13:05:14.936Z,95230.98
2019-01-19T13:07:45.341Z,95228.00
2019-01-19T13:10:25.526Z,95219.56
2019-01-19T13:13:03.062Z,95214.53
2019-01-19T13:16:29.744Z,95206.25
2019-01-19T13:19:15.007Z,95201.80
2019-01-19T13:22:40.495Z,95207.84
2019-01-19T13:25:52.029Z,95198.84
2019-01-19T13:28:52.560Z,95201.95
2019-01-19T13:31:45.813Z,95195.12
2019-01-19T13:35:03.141Z,95192.19
2019-01-19T13:38:20.829Z,95201.19
2019-01-19T13:41:42.848Z,95205.95
2019-01-19T13:44:39.995Z,95200.88
2019-01-19T13:47:58.617Z,95197.38
2019-01-19T13:51:02.015Z,95196.45
2019-01-19T13:54:12.805Z,95193.27
2019-01-19T13:57:11.779Z,95198.08
2019-01-19T13:59:57.749Z,95202.02
2019-01-19T14:03:15.020Z,95196.17
2019-01-19T14:06:29.299Z,95187.08
2019-01-19T14:09:36.762Z,95181.17
2019-01-19T14:12:47.986Z,95189.55
2019-01-19T14:15:24.028Z,95181.48
2019-01-19T14:18:07.633Z,95188.03
2019-01-19T14:21:21.807Z,95183.33
2019-01-19T14:24:13.182Z,95185.44
2019-01-19T14:27:10.343Z,95184.58
2019-01-19T14:30:07.951Z,95173.42
2019-01-19T14:33:14.072Z,95179.02
2019-01-19T14:36:16.833Z,95176.91
2019-01-19T14:39:17.608Z,95177.35
2019-01-19T14:42:19.306Z,95172.62
2019-01-19T14:45:22.720Z,95172.64
2019-01-19T14:48:30.501Z,95166.20
2019-01-19T14:51:28.315Z,95174.79
2019-01-19T14:54:58.854Z,95170.06
2019-01-19T14:57:48.269Z,95170.49
2019-01-19T15:00:55.288Z,95167.95
2019-01-19T15:04:05.388Z,95161.95
2019-01-19T15:07:03.984Z,95161.06
2019-01-19T15:10:21.588Z,95165.37
2019-01-19T15:13:36.312Z,95155.94
2019-01-19T15:16:29.142Z,95159.38
2019-01-19T15:19:35.440Z,95156.81
2019-01-19T15:22:40.670Z,95162.38
2019-01-19T15:26:01.311Z,95156.82
2019-01-19T15:29:12.830Z,95153.80
2019-01-19T15:32:09.525Z,95150.82
2019-01-19T15:35:15.978Z,95156.36
2019-01-19T15:38:46.576Z,95152.10
2019-01-19T15:42:06.029Z,95150.81
2019-01-19T15:45:04.231Z,95148.20
2019-01-19T15:48:18.084Z,95151.20
2019-01-19T15:51:38.741Z,95144.77
2019-01-19T15:55:02.172Z,95143.91
2019-01-19T15:58:00.944Z,95147.75
2019-01-19T16:03:55.273Z,95145.16
2019-01-19T16:06:51.230Z,95153.68
2019-01-19T16:10:16.712Z,95153.66
2019-01-19T16:13:25.134Z,95159.20
2019-01-19T16:16:41.269Z,95152.34
2019-01-19T16:19:53.387Z,95154.44
2019-01-19T16:22:54.370Z,95154.85
2019-01-19T16:26:18.117Z,95155.22
2019-01-19T16:29:25.197Z,95146.62
2019-01-19T16:32:32.013Z,95145.32
2019-01-19T16:35:30.056Z,95147.05
2019-01-19T16:38:10.631Z,95145.73
2019-01-19T16:41:24.933Z,95146.51
2019-01-19T16:44:18.641Z,95150.80
2019-01-19T16:47:15.209Z,95151.23
2019-01-19T16:50:07.839Z,95150.35
2019-01-19T16:53:06.393Z,95141.38
2019-01-19T16:56:09.670Z,95141.77
2019-01-19T16:59:19.772Z,95134.90
2019-01-19T17:02:16.210Z,95139.53
2019-01-19T17:05:24.094Z,95142.96
2019-01-19T17:08:42.838Z,95143.00
2019-01-19T17:12:00.302Z,95142.09
2019-01-19T17:15:20.489Z,95140.38
2019-01-19T17:18:26.807Z,95146.80
2019-01-19T17:21:59.568Z,95138.24
2019-01-19T17:25:22.391Z,95146.75
2019-01-19T17:28:39.944Z,95143.34
2019-01-19T17:31:53.318Z,95148.45
2019-01-19T17:34:45.499Z,95149.28
2019-01-19T17:37:39.106Z,95148.83
2019-01-19T17:40:38.775Z,95150.47
2019-01-19T17:43:41.761Z,95149.09
2019-01-19T17:46:40.165Z,95145.30
2019-01-19T17:49:50.218Z,95141.84
2019-01-19T17:53:10.508Z,95143.11
2019-01-19T17:56:11.487Z,95136.25
2019-01-19T17:59:21.350Z,95148.13
2019-01-19T18:02:44.852Z,95137.09
2019-01-19T18:05:42.318Z,95134.44
2019-01-19T18:08:46.057Z,95141.27
2019-01-19T18:11:52.989Z,95131.20
2019-01-19T18:14:55.839Z,95133.93
2019-01-19T18:18:01.214Z,95129.57
2019-01-19T18:21:14.523Z,95132.55
2019-01-19T18:24:26.028Z,95128.38
2019-01-19T18:27:49.606Z,95123.25
2019-01-19T18:30:42.354Z,95124.53
2019-01-19T18:33:35.795Z,95128.34
2019-01-19T18:36:56.272Z,95120.63
2019-01-19T18:40:25.496Z,95125.73
2019-01-19T18:43:30.413Z,95127.89
2019-01-19T18:46:41.607Z,95123.55
2019-01-19T18:49:41.307Z,95128.30
2019-01-19T18:52:23.114Z,95121.03
2019-01-19T18:55:25.876Z,95117.19
2019-01-19T18:58:37.592Z,95120.59
2019-01-19T19:01:53.251Z,95119.28
2019-01-19T19:05:09.513Z,95118.39
2019-01-19T19:08:18.234Z,95117.11
2019-01-19T19:11:24.563Z,95115.72
2019-01-19T19:14:06.740Z,95121.18
2019-01-19T19:17:22.470Z,95115.10
2019-01-19T19:20:27.243Z,95114.63
2019-01-19T19:23:37.365Z,95113.77
2019-01-19T19:27:03.551Z,95116.72
2019-01-19T19:29:55.787Z,95112.45
2019-01-19T19:32:55.334Z,95115.37
2019-01-19T19:36:19.496Z,95114.10
2019-01-19T19:39:35.848Z,95108.15
2019-01-19T19:42:34.741Z,95109.70
2019-01-19T19:45:40.534Z,95106.23
2019-01-19T19:49:09.887Z,95109.70
2019-01-19T19:52:00.642Z,95109.20
2019-01-19T19:54:33.541Z,95106.70
2019-01-19T19:57:04.475Z,95113.57
2019-01-19T19:59:34.804Z,95105.90
2019-01-19T20:02:05.169Z,95104.99
2019-01-19T20:04:35.483Z,95104.99
2019-01-19T20:07:06.472Z,95106.23
2019-01-19T20:09:37.000Z,95113.47
2019-01-19T20:12:08.395Z,95111.69
2019-01-19T20:14:38.759Z,95112.78
2019-01-19T20:17:09.471Z,95107.70
2019-01-19T20:19:39.935Z,95112.78
2019-01-19T20:22:10.245Z,95110.16
2019-01-19T20:24:40.579Z,95108.84
2019-01-19T20:27:10.966Z,95107.48
2019-01-19T20:29:41.376Z,95106.13
2019-01-19T20:32:11.661Z,95112.52
2019-01-19T20:34:42.037Z,95112.16
2019-01-19T20:37:12.347Z,95112.08
2019-01-19T20:39:42.842Z,95108.97
2019-01-19T20:42:13.329Z,95108.97
2019-01-19T20:44:43.663Z,95103.82
2019-01-19T20:47:14.030Z,95107.61
2019-01-19T20:49:44.398Z,95108.89
2019-01-19T20:52:14.739Z,95103.74
2019-01-19T20:54:45.320Z,95102.39
2019-01-19T20:57:15.763Z,95097.72
2019-01-19T20:59:46.227Z,95106.66
2019-01-19T21:02:16.532Z,95112.16
2019-01-19T21:04:46.876Z,95109.13
2019-01-19T21:07:17.210Z,95117.14
2019-01-19T21:09:47.578Z,95111.55
2019-01-19T21:12:17.938Z,95114.55
2019-01-19T21:14:48.253Z,95119.73
2019-01-19T21:17:18.615Z,95111.77
2019-01-19T21:19:49.019Z,95111.77
2019-01-19T21:22:19.478Z,95114.75
2019-01-19T21:24:49.813Z,95107.45
2019-01-19T21:27:20.277Z,95118.53
2019-01-19T21:29:50.634Z,95117.22
2019-01-19T21:32:22.150Z,95118.50
2019-01-19T21:34:52.488Z,95114.27
2019-01-19T21:37:22.833Z,95111.28
2019-01-19T21:39:53.149Z,95114.66
2019-01-19T21:42:23.526Z,95109.48
2019-01-19T21:44:53.926Z,95112.70
2019-01-19T21:47:24.289Z,95112.91
2019-01-19T21:49:54.624Z,95109.39
2019-01-19T21:52:24.938Z,95111.94
2019-01-19T21:54:55.370Z,95115.86
2019-01-19T21:57:25.653Z,95117.44
2019-01-19T21:59:55.988Z,95114.92
2019-01-19T22:02:26.319Z,95114.44
2019-01-19T22:04:56.669Z,95112.33
2019-01-19T22:07:27.038Z,95112.86
2019-01-19T22:09:57.370Z,95117.13
2019-01-19T22:12:27.769Z,95117.97
2019-01-19T22:14:58.110Z,95118.41
2019-01-19T22:17:28.448Z,95117.97
2019-01-19T22:19:58.781Z,95118.41
2019-01-19T22:22:29.204Z,95111.94
2019-01-19T22:24:59.632Z,95122.63
2019-01-19T22:27:30.325Z,95116.55
2019-01-19T22:30:00.643Z,95117.39
2019-01-19T22:32:31.075Z,95119.10
2019-01-19T22:35:01.358Z,95118.17
2019-01-19T22:37:31.741Z,95120.28
2019-01-19T22:40:02.076Z,95118.61
2019-01-19T22:42:32.480Z,95121.91
2019-01-19T22:45:02.841Z,95120.97
2019-01-19T22:47:35.607Z,95118.86
2019-01-19T22:50:09.207Z,95117.14
2019-01-19T22:52:39.625Z,95114.45
2019-01-19T22:55:10.680Z,95120.17
2019-01-19T22:57:41.351Z,95115.86
2019-01-19T23:01:11.118Z,95121.45
2019-01-19T23:03:41.931Z,95112.64
2019-01-19T23:06:12.293Z,95110.53
2019-01-19T23:08:42.647Z,95115.13
2019-01-19T23:11:13.060Z,95108.90
2019-01-19T23:13:43.366Z,95110.16
2019-01-19T23:16:13.677Z,95110.11
2019-01-19T23:18:43.967Z,95106.78
2019-01-19T23:21:14.310Z,95109.44
2019-01-19T23:23:44.586Z,95109.78
2019-01-19T23:26:15.221Z,95108.11
2019-01-19T23:28:45.511Z,95108.11
2019-01-19T23:31:15.792Z,95112.23
2019-01-19T23:33:46.094Z,95110.94
2019-01-19T23:36:16.367Z,95107.96
2019-01-19T23:38:48.059Z,95103.30
2019-01-19T23:41:18.441Z,95100.75
2019-01-19T23:43:48.759Z,95101.59
2019-01-19T23:46:19.030Z,95104.14
2019-01-19T23:48:49.333Z,95101.53
2019-01-19T23:51:19.668Z,95100.55
2019-01-19T23:53:49.938Z,95096.77
2019-01-19T23:56:20.336Z,95096.77
2019-01-19T23:58:50.598Z,95098.65
